Time;durP1;ratioP1;P1;durP2;ratioP2;P2;SDS_P1;SDS_P2;PMS_P1;PMS_P2;Temp;Humidity;BMP_temperature;BMP_pressure;BME280_temperature;BME280_humidity;BME280_pressure;Samples;Min_cycle;Max_cycle;Signal;HPM_P1;HPM_P2
2021/04/09 00:01:39;;;;;;;9.83;6.87;;;2.00;99.90;;;;;;4993718;28;20178;-76
2021/04/09 00:04:05;;;;;;;9.85;7.35;;;2.00;99.90;;;;;;4993497;28;20429;-78
2021/04/09 00:06:30;;;;;;;9.60;6.65;;;2.00;99.90;;;;;;4991332;28;20290;-78
2021/04/09 00:08:56;;;;;;;9.20;6.50;;;2.00;99.90;;;;;;4992669;28;20214;-77
2021/04/09 00:11:22;;;;;;;7.80;5.90;;;2.00;99.90;;;;;;4991596;28;20261;-79
2021/04/09 00:13:47;;;;;;;8.93;6.20;;;2.00;99.90;;;;;;4991537;28;20583;-78
2021/04/09 00:16:13;;;;;;;15.47;7.50;;;2.00;99.90;;;;;;4992111;28;20207;-78
2021/04/09 00:18:39;;;;;;;8.20;5.97;;;2.00;99.90;;;;;;4991156;28;20728;-77
2021/04/09 00:21:05;;;;;;;13.90;7.20;;;2.00;99.90;;;;;;4992407;28;20200;-77
2021/04/09 00:23:31;;;;;;;12.87;6.87;;;2.00;99.90;;;;;;4992618;28;20415;-77
2021/04/09 00:25:57;;;;;;;8.88;6.40;;;2.00;99.90;;;;;;4992132;28;20426;-78
2021/04/09 00:28:22;;;;;;;10.23;6.43;;;2.10;99.90;;;;;;4991326;28;20188;-77
2021/04/09 00:30:48;;;;;;;10.60;7.43;;;2.00;99.90;;;;;;4994352;28;20260;-77
2021/04/09 00:33:13;;;;;;;9.93;6.23;;;2.10;99.90;;;;;;4995683;28;20213;-77
2021/04/09 00:35:39;;;;;;;9.53;7.20;;;2.00;99.90;;;;;;4995319;28;20206;-77
2021/04/09 00:38:05;;;;;;;7.47;6.00;;;2.00;99.90;;;;;;4995507;28;20265;-78
2021/04/09 00:40:31;;;;;;;8.50;6.30;;;2.00;99.90;;;;;;4995578;28;20503;-75
2021/04/09 00:42:56;;;;;;;12.30;7.37;;;2.00;99.90;;;;;;4995537;28;20189;-76
2021/04/09 00:45:22;;;;;;;11.33;6.73;;;1.90;99.90;;;;;;4995097;28;20199;-77
2021/04/09 00:47:48;;;;;;;7.90;5.70;;;1.90;99.90;;;;;;4995525;28;20188;-76
2021/04/09 00:50:14;;;;;;;10.87;6.50;;;1.90;99.90;;;;;;4994213;28;20211;-77
2021/04/09 00:52:42;;;;;;;9.40;6.45;;;1.90;99.90;;;;;;4994173;28;20181;-79
2021/04/09 00:55:09;;;;;;;8.15;5.65;;;1.90;99.90;;;;;;4995126;28;20198;-79
2021/04/09 00:57:36;;;;;;;10.82;7.03;;;1.90;99.90;;;;;;4995404;28;20711;-79
2021/04/09 01:00:08;;;;;;;8.27;6.10;;;1.90;99.90;;;;;;4995540;28;20175;-79
2021/04/09 01:02:34;;;;;;;10.45;6.75;;;2.00;99.90;;;;;;4995236;28;20175;-79
2021/04/09 01:05:00;;;;;;;11.07;7.37;;;2.00;99.90;;;;;;4994952;28;20174;-78
2021/04/09 01:07:26;;;;;;;12.20;7.10;;;2.00;99.90;;;;;;4974365;28;597479;-78
2021/04/09 01:09:54;;;;;;;8.75;6.43;;;1.90;99.90;;;;;;4996350;28;20500;-78
2021/04/09 01:12:19;;;;;;;9.25;6.60;;;2.00;99.90;;;;;;4996308;28;20170;-78
2021/04/09 01:14:46;;;;;;;6.87;5.67;;;2.00;99.90;;;;;;4978841;28;20183;-79
2021/04/09 01:17:36;;;;;;;8.90;7.15;;;2.10;99.90;;;;;;4996087;28;20269;-78
2021/04/09 01:20:34;;;;;;;9.07;6.13;;;2.00;99.90;;;;;;4995105;28;20232;-78
2021/04/09 01:23:18;;;;;;;12.65;6.70;;;2.00;99.90;;;;;;4973808;28;20190;-79
2021/04/09 01:25:50;;;;;;;14.00;6.25;;;2.10;99.90;;;;;;4995943;28;20195;-78
2021/04/09 01:28:27;;;;;;;10.88;6.50;;;2.10;99.90;;;;;;4996063;28;20164;-77
2021/04/09 01:31:25;;;;;;;11.52;6.55;;;2.10;99.90;;;;;;4995968;28;20159;-77
2021/04/09 01:33:55;;;;;;;10.38;6.60;;;2.10;99.90;;;;;;4995907;28;20718;-78
2021/04/09 01:36:34;;;;;;;11.55;6.30;;;2.20;99.90;;;;;;4995523;28;20207;-78
2021/04/09 01:39:13;;;;;;;10.10;6.30;;;2.20;99.90;;;;;;4995768;28;20206;-79
2021/04/09 01:41:39;;;;;;;9.52;5.88;;;2.20;99.90;;;;;;4995260;28;20165;-77
2021/04/09 01:44:09;;;;;;;8.00;5.63;;;2.30;99.90;;;;;;4994417;28;20207;-77
2021/04/09 01:46:37;;;;;;;9.45;6.32;;;2.30;99.90;;;;;;4995252;28;20566;-81
2021/04/09 01:49:03;;;;;;;10.95;5.55;;;2.30;99.90;;;;;;4995603;28;20179;-78
2021/04/09 01:51:30;;;;;;;8.73;6.78;;;2.30;99.90;;;;;;4995622;28;20185;-78
2021/04/09 01:53:56;;;;;;;10.13;5.95;;;2.40;99.90;;;;;;4995580;28;20542;-77
2021/04/09 01:56:23;;;;;;;11.17;6.57;;;2.40;99.90;;;;;;4995156;28;20203;-77
2021/04/09 01:58:50;;;;;;;8.43;6.40;;;2.40;99.90;;;;;;4995317;28;20298;-78
2021/04/09 02:01:17;;;;;;;11.73;5.97;;;2.50;99.90;;;;;;4994029;28;20190;-78
2021/04/09 02:03:50;;;;;;;11.70;6.93;;;2.50;99.90;;;;;;4994184;28;20278;-77
2021/04/09 02:06:16;;;;;;;10.65;6.47;;;2.60;99.90;;;;;;4994928;28;20286;-78
2021/04/09 02:08:42;;;;;;;8.65;6.38;;;2.60;99.90;;;;;;4995147;28;20187;-78
2021/04/09 02:11:09;;;;;;;9.70;6.32;;;2.60;99.90;;;;;;4995098;28;20652;-78
2021/04/09 02:13:35;;;;;;;7.97;6.22;;;2.70;99.90;;;;;;4993944;28;20207;-77
2021/04/09 02:16:02;;;;;;;8.65;5.75;;;2.70;99.90;;;;;;4995081;28;20535;-78
2021/04/09 02:18:28;;;;;;;8.45;6.40;;;2.70;99.90;;;;;;4995002;28;20312;-79
2021/04/09 02:21:00;;;;;;;8.30;6.57;;;2.70;99.90;;;;;;4993793;28;20179;-76
2021/04/09 02:23:27;;;;;;;9.75;6.43;;;2.70;99.90;;;;;;4994048;28;20176;-78
2021/04/09 02:25:59;;;;;;;9.45;6.45;;;2.70;99.90;;;;;;4994607;28;20196;-77
2021/04/09 02:28:26;;;;;;;8.68;5.78;;;2.70;99.90;;;;;;4995170;28;20623;-77
2021/04/09 02:31:03;;;;;;;10.82;6.32;;;2.70;99.90;;;;;;4994955;28;20194;-76
2021/04/09 02:33:30;;;;;;;7.80;6.28;;;2.60;99.90;;;;;;4994842;28;20173;-78
2021/04/09 02:35:56;;;;;;;9.30;5.55;;;2.70;99.90;;;;;;4994524;28;20202;-80
2021/04/09 02:38:23;;;;;;;10.27;5.93;;;2.70;99.90;;;;;;4994528;28;20207;-75
2021/04/09 02:40:50;;;;;;;11.90;6.93;;;2.70;99.90;;;;;;4993370;28;20270;-82
2021/04/09 02:43:16;;;;;;;7.05;5.80;;;2.70;99.90;;;;;;4994528;28;20178;-77
2021/04/09 02:45:41;;;;;;;7.03;5.67;;;2.70;99.90;;;;;;4993021;28;20202;-77
2021/04/09 02:48:09;;;;;;;7.43;5.87;;;2.60;99.90;;;;;;4994470;28;20424;-78
2021/04/09 02:50:42;;;;;;;10.32;5.70;;;2.60;99.90;;;;;;4993450;28;20430;-77
2021/04/09 02:53:16;;;;;;;8.60;6.00;;;2.60;99.90;;;;;;4993664;28;20262;-79
2021/04/09 02:55:44;;;;;;;11.02;6.82;;;2.60;99.90;;;;;;4992664;28;20233;-78
2021/04/09 02:58:11;;;;;;;9.40;6.47;;;2.50;99.90;;;;;;4994310;28;20302;-78
2021/04/09 03:00:42;;;;;;;9.73;6.70;;;2.50;99.90;;;;;;4994663;28;20203;-78
2021/04/09 03:03:09;;;;;;;11.95;6.82;;;2.50;99.90;;;;;;4994274;28;20242;-78
2021/04/09 03:05:35;;;;;;;11.95;7.03;;;2.50;99.90;;;;;;4992537;28;20215;-77
2021/04/09 03:08:02;;;;;;;11.20;7.40;;;2.50;99.90;;;;;;4993086;28;20500;-79
2021/04/09 03:10:28;;;;;;;10.68;6.18;;;2.50;99.90;;;;;;4994167;28;20543;-77
2021/04/09 03:12:53;;;;;;;12.77;6.93;;;2.40;99.90;;;;;;4992976;28;20183;-78
2021/04/09 03:15:26;;;;;;;10.33;7.13;;;2.50;99.90;;;;;;4993700;28;20586;-78
2021/04/09 03:17:59;;;;;;;18.35;7.93;;;2.50;99.90;;;;;;4994029;28;20559;-77
2021/04/09 03:20:25;;;;;;;9.25;6.32;;;2.50;99.90;;;;;;4992516;28;20189;-76
2021/04/09 03:22:51;;;;;;;9.27;6.37;;;2.40;99.90;;;;;;4992753;28;20174;-76
2021/04/09 03:25:17;;;;;;;12.68;6.30;;;2.40;99.90;;;;;;4993428;28;20411;-76
2021/04/09 03:27:43;;;;;;;10.27;7.20;;;2.40;99.90;;;;;;4993794;28;20186;-77
2021/04/09 03:30:09;;;;;;;7.80;6.17;;;2.40;99.90;;;;;;4993783;28;20640;-76
2021/04/09 03:32:35;;;;;;;11.48;6.68;;;2.40;99.90;;;;;;4993600;28;20205;-77
2021/04/09 03:35:01;;;;;;;9.70;6.30;;;2.40;99.90;;;;;;4993282;28;20184;-76
2021/04/09 03:37:26;;;;;;;10.20;6.73;;;2.40;99.90;;;;;;4992268;28;20211;-78
2021/04/09 03:39:52;;;;;;;9.17;7.10;;;2.40;99.90;;;;;;4993660;28;20190;-77
2021/04/09 03:42:18;;;;;;;13.50;7.27;;;2.40;99.90;;;;;;4993697;28;20179;-76
2021/04/09 03:44:43;;;;;;;13.17;7.40;;;2.40;99.90;;;;;;4993593;28;20700;-77
2021/04/09 03:47:09;;;;;;;11.30;7.60;;;2.50;99.90;;;;;;4993573;28;20203;-77
2021/04/09 03:49:34;;;;;;;16.50;7.07;;;2.50;99.90;;;;;;4976125;28;20594;-77
2021/04/09 03:52:01;;;;;;;9.40;7.03;;;2.50;99.90;;;;;;4993691;28;20182;-77
2021/04/09 03:54:27;;;;;;;9.50;7.03;;;2.50;99.90;;;;;;4993521;28;20186;-77
2021/04/09 03:56:52;;;;;;;10.50;6.60;;;2.40;99.90;;;;;;4993230;28;20260;-76
2021/04/09 03:59:18;;;;;;;9.47;7.30;;;2.50;99.90;;;;;;4993540;28;20430;-77
2021/04/09 04:01:44;;;;;;;8.67;7.30;;;2.50;99.90;;;;;;4993519;28;20193;-77
2021/04/09 04:04:10;;;;;;;9.63;7.25;;;2.50;99.90;;;;;;4993508;28;20592;-76
2021/04/09 04:06:36;;;;;;;13.13;7.65;;;2.50;99.90;;;;;;4996649;28;20310;-77
2021/04/09 04:09:02;;;;;;;9.70;6.77;;;2.50;99.90;;;;;;4997524;28;20245;-76
2021/04/09 04:11:28;;;;;;;10.00;7.20;;;2.60;99.90;;;;;;4996164;28;20186;-77
2021/04/09 04:13:54;;;;;;;13.45;8.43;;;2.60;99.90;;;;;;4997281;28;20289;-77
2021/04/09 04:16:20;;;;;;;11.70;8.30;;;2.60;99.90;;;;;;4996945;28;20282;-77
2021/04/09 04:18:46;;;;;;;8.63;7.77;;;2.60;99.90;;;;;;4997147;28;20203;-77
2021/04/09 04:21:11;;;;;;;16.60;7.50;;;2.60;99.90;;;;;;4997251;28;20171;-77
2021/04/09 04:23:37;;;;;;;9.83;6.40;;;2.60;99.90;;;;;;4997175;28;20208;-77
2021/04/09 04:26:03;;;;;;;13.23;8.17;;;2.50;99.90;;;;;;4996699;28;20573;-78
2021/04/09 04:28:28;;;;;;;12.33;8.07;;;2.50;99.90;;;;;;4997130;28;20422;-77
2021/04/09 04:30:58;;;;;;;11.80;8.60;;;2.60;99.90;;;;;;4995820;28;20430;-77
2021/04/09 04:33:24;;;;;;;10.95;7.78;;;2.60;99.90;;;;;;4997018;28;20211;-76
2021/04/09 04:35:51;;;;;;;12.57;9.00;;;2.50;99.90;;;;;;4995249;28;20230;-76
2021/04/09 04:38:17;;;;;;;12.85;9.10;;;2.60;99.90;;;;;;4996734;28;20471;-80
2021/04/09 04:40:43;;;;;;;11.75;8.52;;;2.70;99.90;;;;;;4997056;28;20183;-76
2021/04/09 04:43:09;;;;;;;11.80;8.63;;;2.70;99.90;;;;;;4995628;28;20186;-77
2021/04/09 04:45:35;;;;;;;11.93;8.85;;;2.70;99.90;;;;;;4996304;28;20196;-76
2021/04/09 04:48:01;;;;;;;14.30;8.87;;;2.70;99.90;;;;;;4996698;28;20546;-78
2021/04/09 04:50:26;;;;;;;10.07;8.43;;;2.70;99.90;;;;;;4996554;28;20590;-77
2021/04/09 04:52:52;;;;;;;12.70;8.70;;;2.70;99.90;;;;;;4996506;28;20230;-77
2021/04/09 04:55:18;;;;;;;10.93;7.70;;;2.70;99.90;;;;;;4978860;28;20234;-77
2021/04/09 04:57:43;;;;;;;23.10;8.63;;;2.60;99.90;;;;;;4995219;28;20548;-77
2021/04/09 05:00:10;;;;;;;13.40;8.70;;;2.60;99.90;;;;;;4996464;28;20201;-77
2021/04/09 05:02:35;;;;;;;15.23;8.63;;;2.70;99.90;;;;;;4994940;28;20730;-76
2021/04/09 05:05:02;;;;;;;12.00;7.93;;;2.70;99.90;;;;;;4994897;28;20183;-77
2021/04/09 05:07:28;;;;;;;10.50;8.50;;;2.70;99.90;;;;;;4995046;28;20203;-77
2021/04/09 05:09:53;;;;;;;12.77;8.73;;;2.70;99.90;;;;;;4996450;28;20679;-77
2021/04/09 05:12:19;;;;;;;12.67;8.47;;;2.70;99.90;;;;;;4996255;28;20183;-77
2021/04/09 05:14:45;;;;;;;16.53;9.20;;;2.70;99.90;;;;;;4994733;28;20183;-77
2021/04/09 05:17:10;;;;;;;13.20;8.93;;;2.80;99.90;;;;;;4993943;28;20290;-77
2021/04/09 05:19:36;;;;;;;11.30;8.93;;;2.90;99.90;;;;;;4996177;28;20198;-77
2021/04/09 05:22:02;;;;;;;11.90;8.60;;;2.90;99.90;;;;;;4978842;28;20179;-77
2021/04/09 05:24:27;;;;;;;16.13;9.37;;;3.00;99.90;;;;;;4994943;28;20186;-78
2021/04/09 05:26:53;;;;;;;17.63;8.50;;;3.10;99.90;;;;;;4995954;28;20694;-78
2021/04/09 05:29:18;;;;;;;13.10;8.30;;;3.10;99.90;;;;;;4996029;28;20258;-78
2021/04/09 05:31:44;;;;;;;15.20;8.60;;;3.20;99.90;;;;;;4994658;28;20198;-78
2021/04/09 05:34:10;;;;;;;12.07;8.87;;;3.30;99.90;;;;;;4995867;28;20236;-77
2021/04/09 05:36:36;;;;;;;13.77;9.40;;;3.30;99.90;;;;;;4993947;28;20438;-78
2021/04/09 05:39:02;;;;;;;12.10;9.00;;;3.40;99.90;;;;;;4995909;28;20550;-77
2021/04/09 05:41:28;;;;;;;11.63;8.80;;;3.40;99.90;;;;;;4994367;28;20230;-77
2021/04/09 05:43:54;;;;;;;12.93;8.70;;;3.50;99.90;;;;;;4995321;28;20179;-76
2021/04/09 05:46:20;;;;;;;12.07;8.80;;;3.50;99.90;;;;;;4995221;28;20622;-77
2021/04/09 05:48:46;;;;;;;12.60;8.40;;;3.60;99.90;;;;;;4994197;28;20273;-77
2021/04/09 05:51:11;;;;;;;11.27;8.20;;;3.60;99.90;;;;;;4994186;28;20501;-77
2021/04/09 05:53:39;;;;;;;12.10;8.50;;;3.70;99.90;;;;;;4994162;28;20183;-77
2021/04/09 05:56:05;;;;;;;12.25;7.45;;;3.80;99.90;;;;;;4994925;28;20278;-76
2021/04/09 05:58:31;;;;;;;12.85;7.82;;;3.90;99.90;;;;;;4994060;28;20750;-78
2021/04/09 06:00:56;;;;;;;11.03;8.80;;;4.00;99.90;;;;;;4995338;28;20180;-77
2021/04/09 06:03:22;;;;;;;14.00;8.03;;;4.10;99.90;;;;;;4994153;28;20184;-77
2021/04/09 06:05:47;;;;;;;13.13;8.87;;;4.30;99.90;;;;;;4994858;28;20302;-77
2021/04/09 06:08:13;;;;;;;11.63;7.60;;;4.40;99.90;;;;;;4995303;28;20190;-77
2021/04/09 06:10:39;;;;;;;14.20;9.10;;;4.50;99.90;;;;;;4993809;28;20603;-78
2021/04/09 06:13:06;;;;;;;13.00;9.20;;;4.60;99.90;;;;;;4994135;28;20195;-80
2021/04/09 06:15:32;;;;;;;9.80;7.55;;;4.70;99.90;;;;;;4995024;28;20288;-78
2021/04/09 06:17:58;;;;;;;13.50;8.27;;;4.70;99.90;;;;;;4993712;28;20203;-77
2021/04/09 06:20:23;;;;;;;13.70;7.10;;;4.90;99.90;;;;;;4993951;28;20542;-80
2021/04/09 06:22:49;;;;;;;10.80;8.10;;;5.00;99.90;;;;;;4994845;28;20426;-79
2021/04/09 06:25:17;;;;;;;17.17;7.50;;;5.00;99.90;;;;;;4994604;28;20187;-79
2021/04/09 06:27:44;;;;;;;11.98;8.32;;;5.10;99.90;;;;;;4994675;28;20418;-80
2021/04/09 06:30:10;;;;;;;10.20;7.20;;;5.20;99.90;;;;;;4994822;28;20194;-80
2021/04/09 06:32:36;;;;;;;11.30;8.15;;;5.20;99.90;;;;;;4994712;28;20195;-81
2021/04/09 06:35:02;;;;;;;10.67;7.23;;;5.30;99.90;;;;;;4993009;28;20187;-81
2021/04/09 06:37:27;;;;;;;7.88;6.72;;;5.40;99.90;;;;;;4994607;28;20210;-81
2021/04/09 06:39:53;;;;;;;11.03;7.73;;;5.50;99.90;;;;;;4994908;28;20652;-80
2021/04/09 06:42:19;;;;;;;13.63;7.70;;;5.60;99.90;;;;;;4994573;28;20177;-81
2021/04/09 06:44:49;;;;;;;14.00;8.90;;;5.60;99.90;;;;;;4992767;28;20179;-81
2021/04/09 06:47:17;;;;;;;14.50;8.30;;;5.70;99.90;;;;;;4993201;28;20679;-82
2021/04/09 06:49:42;;;;;;;8.98;7.63;;;5.80;99.90;;;;;;4994427;28;20206;-82
2021/04/09 06:52:14;;;;;;;12.67;7.70;;;6.00;99.90;;;;;;4993327;28;20218;-85
2021/04/09 06:54:41;;;;;;;9.68;7.13;;;6.00;99.90;;;;;;4976621;28;20437;-80
2021/04/09 06:57:45;;;;;;;13.13;7.45;;;6.10;99.90;;;;;;4992717;28;20222;-83
2021/04/09 07:00:12;;;;;;;12.13;8.85;;;6.20;99.90;;;;;;4994157;28;20185;-83
2021/04/09 07:02:42;;;;;;;12.30;7.60;;;6.40;99.90;;;;;;4994296;28;20197;-83
2021/04/09 07:05:08;;;;;;;11.35;7.47;;;6.60;99.90;;;;;;4992800;28;20215;-82
2021/04/09 07:07:34;;;;;;;12.50;7.28;;;6.70;99.90;;;;;;4994313;28;20183;-82
2021/04/09 07:09:59;;;;;;;10.57;7.07;;;7.00;99.90;;;;;;4994353;28;20175;-83
2021/04/09 07:12:27;;;;;;;11.73;7.00;;;7.20;99.90;;;;;;4994276;28;20542;-82
2021/04/09 07:15:02;;;;;;;11.02;7.35;;;7.30;99.90;;;;;;4994032;28;20179;-82
2021/04/09 07:17:36;;;;;;;12.25;7.47;;;7.50;99.90;;;;;;4992746;28;20606;-81
2021/04/09 07:20:16;;;;;;;15.55;8.52;;;7.60;99.90;;;;;;4994065;28;20294;-80
2021/04/09 07:22:57;;;;;;;11.27;7.35;;;7.80;99.90;;;;;;4993896;28;20163;-82
2021/04/09 07:25:27;;;;;;;10.93;6.57;;;7.90;99.90;;;;;;4993522;28;20191;-81
2021/04/09 07:28:16;;;;;;;10.80;7.28;;;8.00;99.90;;;;;;4993985;28;20160;-82
2021/04/09 07:30:50;;;;;;;11.15;6.10;;;8.00;99.90;;;;;;4992603;28;20202;-81
2021/04/09 07:33:23;;;;;;;18.88;7.30;;;8.20;99.90;;;;;;4994065;28;20179;-84
2021/04/09 07:35:58;;;;;;;8.10;6.65;;;8.20;99.90;;;;;;4993458;28;20208;-82
2021/04/09 07:38:25;;;;;;;12.13;8.38;;;8.40;99.90;;;;;;4993831;28;20580;-84
2021/04/09 07:41:05;;;;;;;10.85;7.30;;;8.50;99.90;;;;;;4991928;28;20287;-81
2021/04/09 07:43:34;;;;;;;11.02;7.32;;;8.50;99.90;;;;;;4992297;28;20183;-84
2021/04/09 07:46:03;;;;;;;15.15;6.72;;;8.60;99.90;;;;;;4992133;28;20202;-81
2021/04/09 07:48:36;;;;;;;10.75;6.10;;;8.70;99.90;;;;;;4993249;28;20182;-83
2021/04/09 07:51:03;;;;;;;7.57;5.75;;;8.80;99.90;;;;;;4992424;28;20187;-82
2021/04/09 07:53:29;;;;;;;11.00;6.75;;;9.00;99.90;;;;;;4993792;28;20215;-82
2021/04/09 07:56:06;;;;;;;12.67;6.73;;;9.00;99.90;;;;;;4993746;28;20218;-84
2021/04/09 07:58:34;;;;;;;14.05;7.15;;;9.20;99.90;;;;;;4994638;28;20685;-81
2021/04/09 08:01:00;;;;;;;11.02;7.15;;;9.30;99.90;;;;;;4995773;28;20172;-82
2021/04/09 08:03:30;;;;;;;12.07;6.50;;;9.50;99.90;;;;;;4995144;28;20180;-84
2021/04/09 08:06:14;;;;;;;7.97;6.50;;;9.60;99.90;;;;;;4976688;28;20230;-84
2021/04/09 08:09:00;;;;;;;8.57;6.45;;;9.70;99.90;;;;;;4993768;28;20214;-81
2021/04/09 08:11:36;;;;;;;10.40;6.35;;;9.90;99.90;;;;;;4993607;28;20208;-81
2021/04/09 08:14:11;;;;;;;10.07;6.05;;;9.90;99.90;;;;;;4993467;28;20175;-83
2021/04/09 08:16:38;;;;;;;9.00;6.85;;;10.00;99.90;;;;;;4993497;28;20240;-84
2021/04/09 08:19:07;;;;;;;8.40;6.13;;;10.10;99.90;;;;;;4993639;28;20226;-81
2021/04/09 08:21:38;;;;;;;10.75;5.68;;;10.40;99.90;;;;;;4992107;28;20182;-81
2021/04/09 08:24:09;;;;;;;10.15;5.80;;;10.60;99.90;;;;;;4992197;28;20241;-82
2021/04/09 08:26:36;;;;;;;9.20;5.50;;;10.80;99.90;;;;;;4991982;28;20288;-82
2021/04/09 08:29:03;;;;;;;8.30;6.10;;;11.00;99.90;;;;;;4992037;28;20442;-83
2021/04/09 08:31:29;;;;;;;11.70;6.10;;;11.10;99.90;;;;;;4991982;28;20431;-81
2021/04/09 08:33:56;;;;;;;10.60;6.23;;;11.30;99.90;;;;;;4991873;28;20469;-80
2021/04/09 08:36:22;;;;;;;11.73;5.10;;;11.50;99.90;;;;;;4992959;28;20851;-79
2021/04/09 08:38:48;;;;;;;15.20;6.20;;;11.70;99.90;;;;;;4993268;28;20458;-83
2021/04/09 08:41:15;;;;;;;7.20;5.30;;;11.40;99.90;;;;;;4993119;28;20465;-82
2021/04/09 08:43:41;;;;;;;10.73;5.40;;;11.30;99.90;;;;;;4992170;28;20419;-85
2021/04/09 08:46:07;;;;;;;9.40;5.63;;;11.40;99.90;;;;;;4991841;28;20435;-81
2021/04/09 08:48:36;;;;;;;7.63;5.20;;;11.50;99.90;;;;;;4993404;28;20494;-81
2021/04/09 08:51:03;;;;;;;7.57;5.67;;;11.60;99.90;;;;;;4993484;28;20501;-85
2021/04/09 08:53:31;;;;;;;7.73;5.30;;;11.40;99.90;;;;;;4996305;28;20414;-80
2021/04/09 08:55:57;;;;;;;6.97;5.60;;;11.40;99.90;;;;;;4994961;28;20866;-85
2021/04/09 08:58:22;;;;;;;9.93;6.07;;;11.60;99.90;;;;;;4995227;28;20490;-81
2021/04/09 09:00:50;;;;;;;10.13;5.57;;;11.70;99.90;;;;;;4995145;28;20457;-82
2021/04/09 09:03:28;;;;;;;9.20;5.50;;;11.60;99.90;;;;;;4979520;28;20714;-86
2021/04/09 09:06:00;;;;;;;10.60;6.40;;;11.60;99.90;;;;;;4995998;28;20429;-81
2021/04/09 09:08:41;;;;;;;10.70;6.53;;;11.60;99.90;;;;;;4996367;28;20411;-83
2021/04/09 09:11:07;;;;;;;8.17;5.23;;;11.50;99.90;;;;;;4995126;28;20419;-81
2021/04/09 09:13:43;;;;;;;9.90;5.50;;;11.60;99.90;;;;;;4996616;28;20433;-83
2021/04/09 09:16:19;;;;;;;10.40;5.17;;;11.50;99.90;;;;;;4994949;28;20525;-84
2021/04/09 09:18:46;;;;;;;12.17;6.17;;;11.70;99.90;;;;;;4996401;28;20462;-82
2021/04/09 09:21:15;;;;;;;8.03;5.17;;;12.00;99.90;;;;;;4994865;28;20397;-81
2021/04/09 09:23:40;;;;;;;9.00;5.03;;;11.80;99.90;;;;;;4996271;28;20450;-85
2021/04/09 09:26:18;;;;;;;9.73;5.50;;;12.00;99.90;;;;;;4994504;28;20825;-85
2021/04/09 09:28:47;;;;;;;8.70;4.70;;;12.30;99.90;;;;;;4994881;28;20210;-83
2021/04/09 09:31:33;;;;;;;14.40;4.70;;;12.50;99.90;;;;;;4994864;28;20986;-85
2021/04/09 09:34:17;;;;;;;9.53;5.30;;;12.20;99.90;;;;;;4994759;28;20397;-79
2021/04/09 09:37:20;;;;;;;7.47;4.20;;;12.20;99.90;;;;;;4995532;28;20464;-83
2021/04/09 09:39:58;;;;;;;10.17;5.47;;;12.60;99.90;;;;;;4996115;28;20415;-83
2021/04/09 09:42:27;;;;;;;9.20;5.20;;;12.40;99.90;;;;;;4995643;28;20428;-81
2021/04/09 09:45:00;;;;;;;11.30;6.00;;;12.70;99.90;;;;;;4995419;28;20937;-81
2021/04/09 09:47:31;;;;;;;12.27;5.90;;;12.60;99.90;;;;;;4995910;28;20417;-85
2021/04/09 09:50:03;;;;;;;10.47;5.03;;;12.90;99.90;;;;;;4995804;28;20411;-83
2021/04/09 09:52:44;;;;;;;7.13;4.70;;;12.70;99.90;;;;;;4995116;28;20394;-80
2021/04/09 09:55:15;;;;;;;8.10;5.27;;;12.80;99.90;;;;;;4993841;28;20439;-81
2021/04/09 09:57:50;;;;;;;5.67;4.23;;;13.10;99.90;;;;;;4979135;28;20464;-83
2021/04/09 10:00:25;;;;;;;7.70;5.30;;;13.20;99.90;;;;;;4996063;28;20401;-82
2021/04/09 10:03:07;;;;;;;7.40;5.13;;;13.30;99.90;;;;;;4995062;28;20489;-81
2021/04/09 10:05:33;;;;;;;7.47;5.20;;;13.30;99.90;;;;;;4994370;28;20442;-83
2021/04/09 10:08:05;;;;;;;6.70;5.13;;;13.20;99.90;;;;;;4994244;28;20422;-83
2021/04/09 10:10:55;;;;;;;10.37;5.40;;;13.10;99.90;;;;;;4995150;28;20421;-80
2021/04/09 10:13:27;;;;;;;7.67;4.63;;;13.10;99.90;;;;;;4992354;28;20405;-85
2021/04/09 10:15:54;;;;;;;7.60;4.83;;;12.80;99.90;;;;;;4995133;28;20435;-84
2021/04/09 10:18:20;;;;;;;9.53;4.93;;;13.10;99.90;;;;;;4994243;28;20462;-83
2021/04/09 10:20:48;;;;;;;6.37;4.53;;;12.80;99.90;;;;;;4993932;28;20422;-84
2021/04/09 10:23:15;;;;;;;9.83;5.50;;;13.00;99.90;;;;;;4993706;28;20423;-81
2021/04/09 10:25:41;;;;;;;6.83;4.60;;;13.10;99.90;;;;;;4994728;28;20895;-82
2021/04/09 10:28:13;;;;;;;9.87;3.87;;;12.90;99.90;;;;;;4995018;28;20825;-79
2021/04/09 10:30:40;;;;;;;7.33;4.50;;;12.90;99.90;;;;;;4994868;28;20780;-86
2021/04/09 10:33:06;;;;;;;12.67;4.83;;;13.10;99.90;;;;;;4994943;28;20418;-83
2021/04/09 10:35:33;;;;;;;7.33;4.37;;;13.00;99.90;;;;;;4993058;28;20508;-84
2021/04/09 10:38:28;;;;;;;8.97;5.67;;;13.00;99.90;;;;;;4994535;28;20477;-80
2021/04/09 10:40:56;;;;;;;7.87;5.23;;;13.10;99.90;;;;;;4990046;28;20469;-82
2021/04/09 10:43:33;;;;;;;7.47;4.27;;;13.20;99.90;;;;;;4994736;28;20415;-82
2021/04/09 10:46:26;;;;;;;7.70;4.53;;;13.30;99.90;;;;;;4994374;28;20427;-83
2021/04/09 10:48:59;;;;;;;9.10;5.13;;;13.20;99.90;;;;;;4991575;28;20922;-83
2021/04/09 10:51:50;;;;;;;8.33;4.43;;;13.30;99.90;;;;;;4994546;28;20489;-84
2021/04/09 10:54:21;;;;;;;7.50;3.73;;;13.80;99.90;;;;;;4993100;28;20414;-82
2021/04/09 10:56:56;;;;;;;8.13;4.53;;;13.80;99.90;;;;;;4994034;28;20533;-83
2021/04/09 10:59:30;;;;;;;9.87;4.30;;;13.60;99.90;;;;;;4994285;28;20523;-81
2021/04/09 11:01:57;;;;;;;7.23;4.40;;;13.70;99.90;;;;;;4994628;28;20407;-82
2021/04/09 11:04:24;;;;;;;8.90;4.53;;;13.60;99.90;;;;;;4994445;28;20393;-80
2021/04/09 11:07:00;;;;;;;9.00;4.10;;;13.90;99.90;;;;;;4994044;28;20482;-84
2021/04/09 11:09:44;;;;;;;4.97;3.70;;;13.90;99.90;;;;;;4994304;28;20385;-83
2021/04/09 11:12:26;;;;;;;6.37;5.00;;;13.70;99.90;;;;;;4993018;28;20457;-80
2021/04/09 11:15:07;;;;;;;11.17;5.20;;;14.20;99.90;;;;;;4991936;28;20825;-83
2021/04/09 11:17:34;;;;;;;7.50;3.93;;;14.40;99.90;;;;;;4994132;28;20458;-80
2021/04/09 11:20:04;;;;;;;6.37;3.40;;;14.40;99.90;;;;;;4992803;28;20851;-80
2021/04/09 11:22:30;;;;;;;6.40;4.20;;;14.90;99.90;;;;;;4975405;28;20430;-82
2021/04/09 11:25:07;;;;;;;7.10;4.40;;;14.80;99.90;;;;;;4973016;28;20427;-81
2021/04/09 11:27:38;;;;;;;5.20;3.90;;;15.10;99.90;;;;;;4975024;28;20914;-84
2021/04/09 11:30:07;;;;;;;8.50;4.00;;;15.40;99.90;;;;;;4989175;28;20443;-82
2021/04/09 11:32:39;;;;;;;7.83;4.07;;;14.80;99.90;;;;;;4993849;28;20855;-83
2021/04/09 11:35:11;;;;;;;7.00;4.10;;;14.70;99.90;;;;;;4993544;28;20472;-83
2021/04/09 11:37:54;;;;;;;8.53;4.07;;;15.00;99.90;;;;;;4992590;28;20550;-81
2021/04/09 11:40:44;;;;;;;6.83;5.37;;;15.60;99.90;;;;;;4994091;28;20748;-83
2021/04/09 11:43:13;;;;;;;4.60;3.80;;;15.30;99.90;;;;;;4989212;28;20844;-82
2021/04/09 11:45:47;;;;;;;10.37;5.50;;;14.90;99.90;;;;;;4993529;28;20401;-79
2021/04/09 11:48:22;;;;;;;8.40;4.87;;;15.00;99.90;;;;;;4992740;28;20971;-81
2021/04/09 11:50:48;;;;;;;6.70;4.70;;;15.10;99.90;;;;;;4994067;28;20421;-81
2021/04/09 11:53:14;;;;;;;6.23;3.80;;;15.00;99.90;;;;;;4993604;28;20898;-80
2021/04/09 11:55:40;;;;;;;7.80;4.20;;;15.00;99.90;;;;;;4992047;28;20413;-82
2021/04/09 11:58:23;;;;;;;8.43;5.20;;;15.10;99.90;;;;;;4991993;28;20361;-83
2021/04/09 12:00:54;;;;;;;11.80;3.97;;;15.50;99.90;;;;;;4992498;28;20880;-82
2021/04/09 12:03:35;;;;;;;6.40;4.30;;;15.60;99.90;;;;;;4993618;28;20414;-86
2021/04/09 12:06:15;;;;;;;8.10;4.57;;;15.80;99.90;;;;;;4993210;28;20436;-83
2021/04/09 12:08:42;;;;;;;6.07;4.50;;;15.30;99.90;;;;;;4992407;28;20517;-82
2021/04/09 12:11:08;;;;;;;8.07;5.40;;;15.00;99.90;;;;;;4992399;28;20480;-83
2021/04/09 12:13:45;;;;;;;6.73;4.63;;;15.30;99.90;;;;;;4992047;28;20407;-80
2021/04/09 12:16:11;;;;;;;8.07;4.90;;;15.10;99.90;;;;;;4993237;28;20412;-83
2021/04/09 12:18:37;;;;;;;6.80;3.97;;;15.20;99.90;;;;;;4993435;28;20470;-81
2021/04/09 12:21:03;;;;;;;7.40;4.23;;;15.20;99.90;;;;;;4992141;28;20700;-82
2021/04/09 12:23:29;;;;;;;6.97;4.83;;;15.30;99.90;;;;;;4991945;28;20187;-82
2021/04/09 12:25:56;;;;;;;10.50;5.23;;;15.70;99.90;;;;;;4993644;28;20485;-78
2021/04/09 12:28:22;;;;;;;7.30;4.90;;;16.00;99.90;;;;;;4997105;28;20167;-81
2021/04/09 12:30:51;;;;;;;8.93;4.77;;;16.50;99.90;;;;;;4979785;28;20459;-83
2021/04/09 12:33:17;;;;;;;7.17;4.77;;;16.60;99.90;;;;;;4997079;28;20476;-82
2021/04/09 12:35:43;;;;;;;8.57;4.27;;;16.70;99.90;;;;;;4995307;28;20909;-84
2021/04/09 12:38:10;;;;;;;6.13;4.63;;;16.40;99.90;;;;;;4995429;28;20483;-85
2021/04/09 12:40:36;;;;;;;6.80;4.70;;;16.50;99.90;;;;;;4996863;28;20182;-82
2021/04/09 12:43:01;;;;;;;11.63;4.20;;;16.50;99.80;;;;;;4995758;28;20878;-80
2021/04/09 12:45:27;;;;;;;9.03;5.40;;;16.40;99.90;;;;;;4995363;28;20207;-83
2021/04/09 12:47:53;;;;;;;6.50;4.70;;;16.60;99.90;;;;;;4995467;28;20190;-81
2021/04/09 12:50:18;;;;;;;7.73;4.43;;;16.80;99.30;;;;;;4996570;28;20232;-83
2021/04/09 12:52:44;;;;;;;7.80;4.90;;;16.70;99.80;;;;;;4996537;28;20176;-82
2021/04/09 12:55:11;;;;;;;5.90;4.40;;;16.50;98.80;;;;;;4995165;28;20294;-78
2021/04/09 12:57:36;;;;;;;5.40;4.10;;;16.90;99.90;;;;;;4995258;28;20210;-80
2021/04/09 13:00:05;;;;;;;4.80;4.20;;;17.30;98.90;;;;;;4995363;28;20869;-83